Time;durP1;ratioP1;P1;durP2;ratioP2;P2;SDS_P1;SDS_P2;PMS_P1;PMS_P2;Temp;Humidity;BMP_temperature;BMP_pressure;BME280_temperature;BME280_humidity;BME280_pressure;Samples;Min_cycle;Max_cycle;Signal;HPM_P1;HPM_P2
2023/01/19 00:00:09;;;;;;;0.63;0.63;;;1.50;99.90;;;;;;5056291;28;20189;-82
2023/01/19 00:02:35;;;;;;;0.63;0.63;;;1.40;99.90;;;;;;5038127;28;20202;-82
2023/01/19 00:05:02;;;;;;;0.60;0.60;;;1.40;99.90;;;;;;5072854;28;20240;-82
2023/01/19 00:07:31;;;;;;;0.50;0.50;;;1.40;99.90;;;;;;5058236;28;20255;-82
2023/01/19 00:09:57;;;;;;;0.60;0.60;;;1.30;99.90;;;;;;5076538;28;20200;-82
2023/01/19 00:12:23;;;;;;;0.60;0.60;;;1.40;99.90;;;;;;5074387;28;20675;-82
2023/01/19 00:14:49;;;;;;;0.70;0.70;;;1.40;99.90;;;;;;5081204;28;20185;-82
2023/01/19 00:17:17;;;;;;;0.57;0.57;;;1.30;99.90;;;;;;5096562;28;20189;-82
2023/01/19 00:19:43;;;;;;;0.70;0.70;;;1.40;99.90;;;;;;5095943;28;20271;-82
2023/01/19 00:22:08;;;;;;;0.50;0.50;;;1.30;99.90;;;;;;5095145;28;20220;-81
2023/01/19 00:24:34;;;;;;;0.45;0.45;;;1.30;99.90;;;;;;5094793;28;20196;-81
2023/01/19 00:27:02;;;;;;;0.50;0.50;;;1.30;99.90;;;;;;5094846;28;20196;-80
2023/01/19 00:29:33;;;;;;;0.57;0.57;;;1.30;99.90;;;;;;5095809;28;20188;-81
2023/01/19 00:32:03;;;;;;;0.70;0.70;;;1.30;99.90;;;;;;5094406;28;20222;-82
2023/01/19 00:34:48;;;;;;;0.57;0.57;;;1.30;99.90;;;;;;5093844;28;20572;-81
2023/01/19 00:37:14;;;;;;;0.68;0.68;;;1.30;99.90;;;;;;5095679;28;20220;-81
2023/01/19 00:39:40;;;;;;;0.65;0.65;;;1.30;99.90;;;;;;5094285;28;20673;-81
2023/01/19 00:44:49;;;;;;;0.50;0.50;;;1.30;99.90;;;;;;5095461;28;20676;-81
2023/01/19 00:47:15;;;;;;;0.50;0.50;;;1.30;99.90;;;;;;5095863;28;20192;-81
2023/01/19 00:49:41;;;;;;;2.38;1.42;;;1.30;99.90;;;;;;5095513;28;20185;-81
2023/01/19 00:52:07;;;;;;;0.50;0.50;;;1.40;99.90;;;;;;5095396;28;20200;-81
2023/01/19 00:54:32;;;;;;;0.52;0.52;;;1.40;99.90;;;;;;5095378;28;20195;-81
2023/01/19 00:56:58;;;;;;;0.60;0.60;;;1.50;99.90;;;;;;5094291;28;20196;-82
2023/01/19 00:59:24;;;;;;;0.60;0.60;;;1.50;99.90;;;;;;5094018;28;20222;-82
2023/01/19 01:01:50;;;;;;;0.60;0.60;;;1.50;99.90;;;;;;5095588;28;20188;-82
2023/01/19 01:04:16;;;;;;;0.50;0.50;;;1.50;99.90;;;;;;5095178;28;20311;-81
2023/01/19 01:06:41;;;;;;;0.60;0.60;;;1.50;99.90;;;;;;5095308;28;20582;-81
2023/01/19 01:09:10;;;;;;;0.70;0.70;;;1.50;99.90;;;;;;5094271;28;20196;-81
2023/01/19 01:11:42;;;;;;;0.60;0.60;;;1.50;99.90;;;;;;5093612;28;20588;-81
2023/01/19 01:14:12;;;;;;;0.55;0.55;;;1.60;99.90;;;;;;5095380;28;20185;-81
2023/01/19 01:16:38;;;;;;;0.68;0.68;;;1.50;99.90;;;;;;5093296;28;20650;-79
2023/01/19 01:19:04;;;;;;;0.50;0.50;;;1.60;99.90;;;;;;5094795;28;20214;-80
2023/01/19 01:21:30;;;;;;;0.50;0.50;;;1.60;99.90;;;;;;5094719;28;20220;-80
2023/01/19 01:23:55;;;;;;;0.85;0.85;;;1.60;99.90;;;;;;5095249;28;20207;-81
2023/01/19 01:26:21;;;;;;;0.50;0.50;;;1.50;99.90;;;;;;5093353;28;20192;-80
2023/01/19 01:28:47;;;;;;;0.52;0.52;;;1.60;99.90;;;;;;5094769;28;20192;-80
2023/01/19 01:31:12;;;;;;;0.60;0.60;;;1.50;99.90;;;;;;5076975;28;20224;-81
2023/01/19 01:33:38;;;;;;;0.63;0.63;;;1.50;99.90;;;;;;5072942;28;20681;-80
2023/01/19 01:36:04;;;;;;;0.50;0.50;;;1.60;99.90;;;;;;5074490;28;20195;-81
2023/01/19 01:38:30;;;;;;;0.50;0.50;;;1.50;99.90;;;;;;5072891;28;20535;-81
2023/01/19 01:40:56;;;;;;;0.60;0.60;;;1.50;99.90;;;;;;5088203;28;20207;-81
2023/01/19 01:43:22;;;;;;;0.50;0.50;;;1.50;99.90;;;;;;5094166;28;20238;-80
2023/01/19 01:45:47;;;;;;;0.60;0.60;;;1.50;99.90;;;;;;5093283;28;20203;-80
2023/01/19 01:48:27;;;;;;;0.50;0.50;;;1.50;99.90;;;;;;5093073;28;20232;-80
2023/01/19 01:53:42;;;;;;;0.55;0.55;;;1.50;99.90;;;;;;5094191;28;20218;-81
2023/01/19 01:56:13;;;;;;;0.60;0.60;;;1.50;99.90;;;;;;5092932;28;20283;-81
2023/01/19 01:58:39;;;;;;;0.70;0.70;;;1.50;99.90;;;;;;5092838;28;20254;-80
2023/01/19 02:03:52;;;;;;;0.60;0.60;;;1.50;99.90;;;;;;5096574;28;20908;-79
2023/01/19 02:06:18;;;;;;;0.55;0.55;;;1.50;99.90;;;;;;5073930;28;20200;-81
2023/01/19 02:14:17;;;;;;;0.60;0.60;;;1.40;99.90;;;;;;5094325;28;20572;-81
2023/01/19 02:16:44;;;;;;;0.60;0.60;;;1.40;99.90;;;;;;5093551;28;20189;-81
2023/01/19 02:19:15;;;;;;;0.50;0.50;;;1.40;99.90;;;;;;5075802;28;20192;-81
2023/01/19 02:22:02;;;;;;;0.52;0.52;;;1.40;99.90;;;;;;5094143;28;20187;-82
2023/01/19 02:24:29;;;;;;;0.63;0.63;;;1.40;99.90;;;;;;5075608;28;20196;-82
2023/01/19 02:26:55;;;;;;;0.50;0.50;;;1.40;99.90;;;;;;5093905;28;20273;-82
2023/01/19 02:29:24;;;;;;;0.50;0.50;;;1.50;99.90;;;;;;5075423;28;20564;-81
2023/01/19 02:31:51;;;;;;;0.52;0.52;;;1.40;99.90;;;;;;5093754;28;20203;-82
2023/01/19 02:34:19;;;;;;;0.60;0.60;;;1.40;99.90;;;;;;5093792;28;20219;-82
2023/01/19 02:37:02;;;;;;;0.50;0.50;;;1.40;99.90;;;;;;5075434;28;20200;-82
2023/01/19 02:39:37;;;;;;;0.50;0.50;;;1.40;99.90;;;;;;5075225;28;20219;-82
2023/01/19 02:42:07;;;;;;;0.60;0.60;;;1.40;99.90;;;;;;5075445;28;20662;-82
2023/01/19 02:44:35;;;;;;;0.52;0.52;;;1.40;99.90;;;;;;5107202;28;20637;-82
2023/01/19 02:47:01;;;;;;;0.60;0.60;;;1.40;99.90;;;;;;5114067;28;20559;-82
2023/01/19 02:49:29;;;;;;;0.50;0.50;;;1.40;99.90;;;;;;5113746;28;20187;-81
2023/01/19 02:51:55;;;;;;;0.57;0.57;;;1.40;99.90;;;;;;5113930;28;20226;-83
2023/01/19 02:54:30;;;;;;;0.60;0.60;;;1.40;99.90;;;;;;5114043;28;20302;-82
2023/01/19 02:57:29;;;;;;;0.77;0.77;;;1.40;99.90;;;;;;5095177;28;20198;-83
2023/01/19 03:00:06;;;;;;;0.57;0.57;;;1.40;99.90;;;;;;5095713;28;20653;-83
2023/01/19 03:02:46;;;;;;;0.70;0.70;;;1.40;99.90;;;;;;5090138;28;20226;-82
2023/01/19 03:05:12;;;;;;;0.63;0.63;;;1.30;99.90;;;;;;5073360;28;20220;-82
2023/01/19 03:08:16;;;;;;;0.50;0.50;;;1.40;99.90;;;;;;5071681;28;20670;-83
2023/01/19 03:10:49;;;;;;;0.60;0.60;;;1.30;99.90;;;;;;5072992;28;20599;-83
2023/01/19 03:13:28;;;;;;;0.50;0.50;;;1.40;99.90;;;;;;5073218;28;20188;-82
2023/01/19 03:16:16;;;;;;;0.50;0.50;;;1.40;99.90;;;;;;5055104;28;20197;-83
2023/01/19 03:18:46;;;;;;;0.60;0.60;;;1.50;99.90;;;;;;5068299;28;20246;-82
2023/01/19 03:21:14;;;;;;;0.52;0.52;;;1.40;99.90;;;;;;5053033;28;20675;-82
2023/01/19 03:23:43;;;;;;;0.60;0.60;;;1.50;99.90;;;;;;5051626;28;20255;-82
2023/01/19 03:26:17;;;;;;;0.50;0.50;;;1.50;99.90;;;;;;5051982;28;20205;-82
2023/01/19 03:28:44;;;;;;;0.60;0.60;;;1.50;99.90;;;;;;5052817;28;20555;-82
2023/01/19 03:31:15;;;;;;;0.60;0.60;;;1.50;99.90;;;;;;5051588;28;20742;-82
2023/01/19 03:33:46;;;;;;;0.60;0.60;;;1.50;99.90;;;;;;5069995;28;20647;-81
2023/01/19 03:36:20;;;;;;;0.60;0.60;;;1.50;99.90;;;;;;5073111;28;20252;-81
2023/01/19 03:38:49;;;;;;;0.50;0.50;;;1.50;99.90;;;;;;5072921;28;20192;-81
2023/01/19 03:41:18;;;;;;;0.60;0.60;;;1.50;99.90;;;;;;5072895;28;20192;-81
2023/01/19 03:43:46;;;;;;;0.60;0.60;;;1.50;99.90;;;;;;5072720;28;20262;-83
2023/01/19 03:46:16;;;;;;;0.75;0.75;;;1.50;99.90;;;;;;5054460;28;20236;-82
2023/01/19 03:48:42;;;;;;;0.60;0.60;;;1.50;99.90;;;;;;5072923;28;20196;-82
2023/01/19 03:51:09;;;;;;;0.68;0.68;;;1.50;99.90;;;;;;5071738;28;20554;-82
2023/01/19 03:53:36;;;;;;;0.60;0.60;;;1.50;99.90;;;;;;5071528;28;20609;-82
2023/01/19 03:56:02;;;;;;;0.50;0.50;;;1.50;99.90;;;;;;5071729;28;20189;-82
2023/01/19 03:58:28;;;;;;;0.60;0.60;;;1.50;99.90;;;;;;5072667;28;20257;-82
2023/01/19 04:00:53;;;;;;;0.60;0.60;;;1.50;99.90;;;;;;5064633;28;20205;-82
2023/01/19 04:03:19;;;;;;;0.60;0.60;;;1.50;99.90;;;;;;5064757;28;20220;-83
2023/01/19 04:05:45;;;;;;;0.70;0.70;;;1.50;99.90;;;;;;5091734;28;20201;-82
2023/01/19 04:08:11;;;;;;;0.60;0.60;;;1.50;99.90;;;;;;5096769;28;20787;-82
2023/01/19 04:10:37;;;;;;;0.60;0.60;;;1.50;99.90;;;;;;5096484;28;20241;-83
2023/01/19 04:13:04;;;;;;;0.60;0.60;;;1.50;99.90;;;;;;5096420;28;20271;-83
2023/01/19 04:15:31;;;;;;;0.70;0.70;;;1.50;99.90;;;;;;5096495;28;20195;-82
2023/01/19 04:17:57;;;;;;;0.70;0.70;;;1.50;99.90;;;;;;5096348;28;20199;-81
2023/01/19 04:20:25;;;;;;;0.90;0.90;;;1.50;99.90;;;;;;5095539;28;20210;-81
2023/01/19 04:22:51;;;;;;;0.68;0.68;;;1.50;99.90;;;;;;5096110;28;20188;-83
2023/01/19 04:25:17;;;;;;;0.68;0.68;;;1.40;99.90;;;;;;5096426;28;20188;-83
2023/01/19 04:27:43;;;;;;;0.80;0.80;;;1.40;99.90;;;;;;5094935;28;20665;-84
2023/01/19 04:30:09;;;;;;;0.60;0.60;;;1.40;99.90;;;;;;5096261;28;20262;-84
2023/01/19 04:32:35;;;;;;;0.70;0.70;;;1.40;99.90;;;;;;5094468;28;20188;-82
2023/01/19 04:35:01;;;;;;;0.70;0.70;;;1.40;99.90;;;;;;5096427;28;20242;-83
2023/01/19 04:37:27;;;;;;;0.50;0.50;;;1.40;99.90;;;;;;5095709;28;20200;-82
2023/01/19 04:39:53;;;;;;;0.70;0.70;;;1.30;99.90;;;;;;5094996;28;20193;-83
2023/01/19 04:42:18;;;;;;;0.60;0.60;;;1.40;99.90;;;;;;5094871;28;20192;-82
2023/01/19 04:44:44;;;;;;;0.50;0.50;;;1.40;99.90;;;;;;5094682;28;20196;-83
2023/01/19 04:47:10;;;;;;;0.80;0.80;;;1.30;99.90;;;;;;5096008;28;20213;-82
2023/01/19 04:49:36;;;;;;;0.50;0.50;;;1.40;99.90;;;;;;5095764;28;20185;-82
2023/01/19 04:52:03;;;;;;;0.60;0.60;;;1.40;99.90;;;;;;5095796;28;20662;-82
2023/01/19 04:54:29;;;;;;;0.70;0.70;;;1.40;99.90;;;;;;5094825;28;20194;-82
2023/01/19 04:56:55;;;;;;;0.45;0.45;;;1.40;99.90;;;;;;5095557;28;20585;-82
2023/01/19 04:59:21;;;;;;;0.60;0.60;;;1.40;99.90;;;;;;5095371;28;20184;-82
2023/01/19 05:01:47;;;;;;;0.70;0.70;;;1.40;99.90;;;;;;5095252;28;20250;-83
2023/01/19 05:04:12;;;;;;;0.55;0.55;;;1.40;99.90;;;;;;5093732;28;20238;-82
2023/01/19 05:06:38;;;;;;;0.60;0.60;;;1.40;99.90;;;;;;5094317;28;20206;-82
2023/01/19 05:09:06;;;;;;;0.52;0.52;;;1.40;99.90;;;;;;5095606;28;20199;-82
2023/01/19 05:11:32;;;;;;;0.57;0.57;;;1.40;99.90;;;;;;5093978;28;20208;-82
2023/01/19 05:13:58;;;;;;;0.43;0.43;;;1.50;99.90;;;;;;5095466;28;20197;-83
2023/01/19 05:16:23;;;;;;;0.60;0.60;;;1.50;99.90;;;;;;5095312;28;20215;-82
2023/01/19 05:18:49;;;;;;;0.60;0.60;;;1.40;99.90;;;;;;5094551;28;20222;-82
2023/01/19 05:21:15;;;;;;;0.57;0.57;;;1.50;99.90;;;;;;5095191;28;20220;-83
2023/01/19 05:23:40;;;;;;;0.50;0.50;;;1.40;99.90;;;;;;5094939;28;20206;-82
2023/01/19 05:26:07;;;;;;;0.70;0.70;;;1.40;99.90;;;;;;5093685;28;20200;-81
2023/01/19 05:28:33;;;;;;;0.60;0.60;;;1.40;99.90;;;;;;5094390;28;20189;-81
2023/01/19 05:30:59;;;;;;;0.60;0.60;;;1.40;99.90;;;;;;5093949;28;20230;-82
2023/01/19 05:33:27;;;;;;;1.02;1.00;;;1.40;99.90;;;;;;5094360;28;20216;-83
2023/01/19 05:35:53;;;;;;;0.47;0.47;;;1.40;99.90;;;;;;5093879;28;20284;-80
2023/01/19 05:38:20;;;;;;;0.57;0.57;;;1.40;99.90;;;;;;5094625;28;20554;-81
2023/01/19 05:40:46;;;;;;;1.45;1.25;;;1.40;99.90;;;;;;5094789;28;20654;-81
2023/01/19 05:43:13;;;;;;;0.60;0.60;;;1.30;99.90;;;;;;5093517;28;20195;-81
2023/01/19 05:45:39;;;;;;;0.68;0.68;;;1.30;99.90;;;;;;5094663;28;20207;-81
2023/01/19 05:48:06;;;;;;;0.88;0.88;;;1.30;99.90;;;;;;5094673;28;20192;-82
2023/01/19 05:50:33;;;;;;;0.70;0.70;;;1.30;99.90;;;;;;5093110;28;20709;-81
2023/01/19 05:52:59;;;;;;;0.50;0.50;;;1.30;99.90;;;;;;5093472;28;20623;-82
2023/01/19 05:55:25;;;;;;;0.60;0.60;;;1.30;99.90;;;;;;5094389;28;20184;-82
2023/01/19 05:57:51;;;;;;;0.77;0.77;;;1.30;99.90;;;;;;5094387;28;20188;-81
2023/01/19 06:00:17;;;;;;;0.60;0.60;;;1.30;99.90;;;;;;5094470;28;20249;-82
2023/01/19 06:02:43;;;;;;;0.60;0.60;;;1.30;99.90;;;;;;5093836;28;20200;-81
2023/01/19 06:05:09;;;;;;;0.60;0.60;;;1.30;99.90;;;;;;5093837;28;20346;-81
2023/01/19 06:07:35;;;;;;;0.60;0.60;;;1.20;99.90;;;;;;5094357;28;20213;-82
2023/01/19 06:10:01;;;;;;;0.60;0.60;;;1.30;99.90;;;;;;5092933;28;20215;-82
2023/01/19 06:12:27;;;;;;;0.63;0.63;;;1.20;99.90;;;;;;5092558;28;20291;-82
2023/01/19 06:14:52;;;;;;;0.90;0.90;;;1.20;99.90;;;;;;5092930;28;20196;-83
2023/01/19 06:17:19;;;;;;;0.60;0.60;;;1.20;99.90;;;;;;5089234;28;20193;-83
2023/01/19 06:19:44;;;;;;;3.60;1.08;;;1.20;99.90;;;;;;5073874;28;20272;-82
2023/01/19 06:22:10;;;;;;;0.90;0.90;;;1.20;99.90;;;;;;5092921;28;20216;-83
2023/01/19 06:24:36;;;;;;;0.50;0.50;;;1.20;99.90;;;;;;5092584;28;20195;-83
2023/01/19 06:27:02;;;;;;;0.55;0.55;;;1.20;99.90;;;;;;5092887;28;20192;-82
2023/01/19 06:29:27;;;;;;;0.40;0.40;;;1.20;99.90;;;;;;5091963;28;20196;-83
2023/01/19 06:31:53;;;;;;;0.82;0.82;;;1.20;99.90;;;;;;5092215;28;20215;-83
2023/01/19 06:34:19;;;;;;;0.60;0.60;;;1.20;99.90;;;;;;5092627;28;20666;-82
2023/01/19 06:36:45;;;;;;;0.63;0.63;;;1.30;99.90;;;;;;5091965;28;20723;-83
2023/01/19 06:39:11;;;;;;;0.77;0.77;;;1.30;99.90;;;;;;5093898;28;20189;-83
2023/01/19 06:41:37;;;;;;;0.60;0.60;;;1.20;99.90;;;;;;5093965;28;20196;-82
2023/01/19 06:44:04;;;;;;;0.60;0.60;;;1.20;99.90;;;;;;5092842;28;20196;-83
2023/01/19 06:46:30;;;;;;;0.55;0.55;;;1.20;99.90;;;;;;5093572;28;20198;-84
2023/01/19 06:48:56;;;;;;;0.60;0.60;;;1.30;99.90;;;;;;5093733;28;20192;-83
2023/01/19 06:51:22;;;;;;;0.70;0.70;;;1.30;99.90;;;;;;5093114;28;20261;-82
2023/01/19 06:53:48;;;;;;;0.70;0.70;;;1.30;99.90;;;;;;5092503;28;20224;-83
2023/01/19 06:56:14;;;;;;;0.60;0.60;;;1.20;99.90;;;;;;5092703;28;20207;-82
2023/01/19 06:58:41;;;;;;;0.60;0.60;;;1.20;99.90;;;;;;5093725;28;20219;-83
2023/01/19 07:01:07;;;;;;;0.80;0.80;;;1.20;99.90;;;;;;5092260;28;20206;-83
2023/01/19 07:03:35;;;;;;;0.65;0.65;;;1.20;99.90;;;;;;5093141;28;20228;-82
2023/01/19 07:06:01;;;;;;;0.60;0.60;;;1.20;99.90;;;;;;5093426;28;20188;-82
2023/01/19 07:08:30;;;;;;;0.70;0.70;;;1.20;99.90;;;;;;5092158;28;20831;-82
2023/01/19 07:11:05;;;;;;;0.70;0.70;;;1.20;99.90;;;;;;5093576;28;20279;-82
2023/01/19 07:13:32;;;;;;;0.70;0.70;;;1.20;99.90;;;;;;5091484;28;20187;-81
2023/01/19 07:15:58;;;;;;;0.77;0.77;;;1.30;99.90;;;;;;5091961;28;20192;-83
2023/01/19 07:18:24;;;;;;;0.60;0.60;;;1.30;99.90;;;;;;5091948;28;20287;-81
2023/01/19 07:20:50;;;;;;;0.60;0.60;;;1.20;99.90;;;;;;5093471;28;20267;-83
2023/01/19 07:23:16;;;;;;;0.60;0.60;;;1.30;99.90;;;;;;5093592;28;20604;-82
2023/01/19 07:25:46;;;;;;;0.40;0.40;;;1.30;99.90;;;;;;5091850;28;20207;-82
2023/01/19 07:28:14;;;;;;;0.63;0.63;;;1.30;99.90;;;;;;5092460;28;20196;-82
2023/01/19 07:30:44;;;;;;;0.60;0.60;;;1.30;99.90;;;;;;5091680;28;20674;-82
2023/01/19 07:33:11;;;;;;;0.60;0.60;;;1.30;99.90;;;;;;5084560;28;20238;-82
2023/01/19 07:35:36;;;;;;;1.00;0.95;;;1.30;99.90;;;;;;5092250;28;20196;-82
2023/01/19 07:38:03;;;;;;;0.50;0.50;;;1.30;99.90;;;;;;5092017;28;20241;-82
2023/01/19 07:40:28;;;;;;;0.50;0.50;;;1.30;99.90;;;;;;5092852;28;20223;-83
2023/01/19 07:42:54;;;;;;;0.60;0.60;;;1.30;99.90;;;;;;5095789;28;20221;-81
2023/01/19 07:45:20;;;;;;;0.60;0.60;;;1.30;99.90;;;;;;5096833;28;20196;-82
2023/01/19 07:47:47;;;;;;;0.50;0.50;;;1.30;99.90;;;;;;5097066;28;20196;-83
2023/01/19 07:50:16;;;;;;;1.38;1.13;;;1.30;99.90;;;;;;5094966;28;20572;-82
2023/01/19 07:52:41;;;;;;;0.60;0.60;;;1.30;99.90;;;;;;5096388;28;20188;-82
2023/01/19 07:55:08;;;;;;;0.60;0.60;;;1.30;99.90;;;;;;5096626;28;20605;-81
2023/01/19 07:57:35;;;;;;;0.68;0.68;;;1.30;99.90;;;;;;5096615;28;20196;-81
2023/01/19 08:00:02;;;;;;;1.13;1.13;;;1.30;99.90;;;;;;5095505;28;20188;-81
2023/01/19 08:02:29;;;;;;;0.80;0.80;;;1.30;99.90;;;;;;5095169;28;20288;-81
2023/01/19 08:04:54;;;;;;;0.50;0.50;;;1.30;99.90;;;;;;5096858;28;20224;-81
2023/01/19 08:07:20;;;;;;;0.88;0.88;;;1.30;99.90;;;;;;5078140;28;20288;-81
2023/01/19 08:09:46;;;;;;;0.60;0.60;;;1.30;99.90;;;;;;5078529;28;20208;-81
2023/01/19 08:12:11;;;;;;;0.50;0.50;;;1.20;99.90;;;;;;5078256;28;20196;-81
2023/01/19 08:14:37;;;;;;;0.50;0.50;;;1.30;99.90;;;;;;5066830;28;20694;-82
2023/01/19 08:17:03;;;;;;;0.50;0.50;;;1.20;99.90;;;;;;5059545;28;20663;-83
2023/01/19 08:19:29;;;;;;;0.63;0.63;;;1.20;99.90;;;;;;5057832;28;20203;-83
2023/01/19 08:21:55;;;;;;;0.55;0.55;;;1.30;99.90;;;;;;5057872;28;20265;-82
2023/01/19 08:24:24;;;;;;;0.60;0.60;;;1.30;99.90;;;;;;5075333;28;20189;-83
2023/01/19 08:26:57;;;;;;;0.60;0.60;;;1.30;99.90;;;;;;5075386;28;20185;-83
2023/01/19 08:29:23;;;;;;;0.60;0.60;;;1.30;99.90;;;;;;5075752;28;20195;-82
2023/01/19 08:31:48;;;;;;;0.50;0.50;;;1.30;99.90;;;;;;5057822;28;20303;-83
2023/01/19 08:34:14;;;;;;;0.60;0.60;;;1.30;99.90;;;;;;5057772;28;20232;-80
2023/01/19 08:36:40;;;;;;;0.70;0.70;;;1.40;99.90;;;;;;5076047;28;20269;-82
2023/01/19 08:39:06;;;;;;;0.50;0.50;;;1.30;99.90;;;;;;5058050;28;20216;-82
2023/01/19 08:41:31;;;;;;;0.70;0.70;;;1.40;99.90;;;;;;5057354;28;20258;-83
2023/01/19 08:43:57;;;;;;;1.80;0.98;;;1.40;99.90;;;;;;5075706;28;20220;-83
2023/01/19 08:46:23;;;;;;;0.70;0.70;;;1.50;99.90;;;;;;5075361;28;20272;-82
2023/01/19 08:48:49;;;;;;;0.65;0.65;;;1.50;99.90;;;;;;5075728;28;20203;-82
2023/01/19 08:51:15;;;;;;;0.77;0.77;;;1.60;99.90;;;;;;5057811;28;20237;-83
2023/01/19 08:53:41;;;;;;;0.60;0.60;;;1.60;99.90;;;;;;5074335;28;20244;-81
2023/01/19 08:56:11;;;;;;;1.58;1.13;;;1.80;99.90;;;;;;5057830;28;20200;-83
2023/01/19 08:58:41;;;;;;;0.50;0.50;;;1.80;99.90;;;;;;5075122;28;20599;-81
2023/01/19 09:01:15;;;;;;;0.60;0.60;;;1.90;99.90;;;;;;5075130;28;20197;-81
2023/01/19 09:03:42;;;;;;;0.60;0.60;;;1.90;99.90;;;;;;5082079;28;20256;-81
2023/01/19 09:06:09;;;;;;;0.80;0.80;;;1.90;99.90;;;;;;5093833;28;20192;-83
2023/01/19 09:08:35;;;;;;;0.47;0.47;;;2.00;99.90;;;;;;5094267;28;20200;-82
2023/01/19 09:11:01;;;;;;;0.60;0.60;;;2.00;99.90;;;;;;5093732;28;20220;-81
2023/01/19 09:13:27;;;;;;;1.05;1.05;;;2.00;99.90;;;;;;5095273;28;20192;-81
2023/01/19 09:15:53;;;;;;;0.60;0.60;;;2.00;99.90;;;;;;5093862;28;20286;-81
2023/01/19 09:18:21;;;;;;;2.15;1.73;;;1.90;99.90;;;;;;5094520;28;20572;-81
2023/01/19 09:20:48;;;;;;;0.60;0.60;;;1.90;99.90;;;;;;5093949;28;20196;-81
2023/01/19 09:23:17;;;;;;;0.70;0.70;;;2.00;99.90;;;;;;5095411;28;20275;-81
2023/01/19 09:25:44;;;;;;;0.50;0.50;;;2.00;99.90;;;;;;5095208;28;20196;-83
2023/01/19 09:28:11;;;;;;;0.50;0.50;;;2.10;99.90;;;;;;5093809;28;20207;-82
2023/01/19 09:30:39;;;;;;;0.70;0.70;;;2.10;99.90;;;;;;5094685;28;20674;-82
2023/01/19 09:33:09;;;;;;;0.80;0.80;;;2.10;99.90;;;;;;5094721;28;20562;-82
2023/01/19 09:35:39;;;;;;;0.50;0.50;;;2.10;99.90;;;;;;5093459;28;20192;-82
2023/01/19 09:38:09;;;;;;;0.57;0.57;;;2.10;99.90;;;;;;5094672;28;20192;-82
2023/01/19 09:40:40;;;;;;;0.60;0.60;;;2.10;99.90;;;;;;5093275;28;20204;-82
2023/01/19 09:43:17;;;;;;;0.60;0.60;;;2.00;99.90;;;;;;5093103;28;20283;-82
2023/01/19 09:45:50;;;;;;;1.00;0.95;;;2.00;99.90;;;;;;5094627;28;20192;-82
2023/01/19 09:48:41;;;;;;;1.00;1.00;;;1.90;99.90;;;;;;5094202;28;20247;-83
2023/01/19 09:51:19;;;;;;;0.60;0.60;;;1.90;99.90;;;;;;5094775;28;20208;-82
2023/01/19 09:53:55;;;;;;;0.55;0.55;;;1.90;99.90;;;;;;5094718;28;20188;-82
2023/01/19 09:56:21;;;;;;;0.70;0.70;;;1.90;99.90;;;;;;5092929;28;20650;-81
2023/01/19 09:58:50;;;;;;;0.63;0.63;;;1.80;99.90;;;;;;5094233;28;20548;-82
2023/01/19 10:01:19;;;;;;;0.65;0.65;;;1.80;99.90;;;;;;5093963;28;20713;-82
2023/01/19 10:03:48;;;;;;;0.75;0.75;;;1.90;99.90;;;;;;5092928;28;20733;-83
2023/01/19 10:06:16;;;;;;;0.55;0.55;;;1.90;99.90;;;;;;5092643;28;20654;-82
2023/01/19 10:09:27;;;;;;;0.60;0.60;;;2.00;99.90;;;;;;5094034;28;20684;-83
2023/01/19 10:12:16;;;;;;;0.60;0.60;;;2.00;99.90;;;;;;5073925;28;20304;-82
2023/01/19 10:15:02;;;;;;;0.60;0.60;;;2.10;99.90;;;;;;5062913;28;20282;-81
2023/01/19 10:17:43;;;;;;;0.70;0.70;;;2.10;99.90;;;;;;5080642;28;20195;-81
2023/01/19 10:20:38;;;;;;;0.60;0.60;;;2.10;99.90;;;;;;5092756;28;20204;-81
2023/01/19 10:23:28;;;;;;;0.80;0.80;;;2.10;99.90;;;;;;5093369;28;20204;-82
2023/01/19 10:25:55;;;;;;;0.50;0.50;;;2.00;99.90;;;;;;5093944;28;20708;-82
2023/01/19 10:28:24;;;;;;;0.55;0.55;;;2.10;99.90;;;;;;5093705;28;20728;-81
2023/01/19 10:30:52;;;;;;;0.60;0.60;;;2.00;99.90;;;;;;5093905;28;20291;-81
2023/01/19 10:33:18;;;;;;;0.70;0.70;;;2.00;99.90;;;;;;5093717;28;20279;-82
2023/01/19 10:35:46;;;;;;;0.63;0.63;;;2.10;99.90;;;;;;5093940;28;20279;-82
2023/01/19 10:38:17;;;;;;;0.70;0.70;;;2.10;99.90;;;;;;5093885;28;20223;-81
2023/01/19 10:41:25;;;;;;;0.80;0.80;;;2.10;99.90;;;;;;5088152;28;20271;-83
2023/01/19 10:44:02;;;;;;;0.70;0.70;;;2.10;99.90;;;;;;4995412;28;20195;-81
2023/01/19 10:46:39;;;;;;;1.15;1.10;;;2.10;99.90;;;;;;5011317;28;20217;-81
2023/01/19 10:49:05;;;;;;;0.77;0.77;;;2.10;99.90;;;;;;5011874;28;20229;-82
2023/01/19 10:51:31;;;;;;;0.70;0.70;;;2.10;99.90;;;;;;5011577;28;20660;-82
2023/01/19 10:54:02;;;;;;;0.95;0.90;;;2.10;99.90;;;;;;5029266;28;20202;-81
2023/01/19 10:56:35;;;;;;;0.60;0.60;;;2.10;99.90;;;;;;5030410;28;20198;-83
2023/01/19 10:59:05;;;;;;;1.25;1.02;;;2.10;99.90;;;;;;5017612;28;20217;-81
2023/01/19 11:01:35;;;;;;;0.70;0.70;;;2.10;99.90;;;;;;5031017;28;20201;-79
2023/01/19 11:04:19;;;;;;;0.60;0.60;;;2.10;99.90;;;;;;5030608;28;20273;-78
2023/01/19 11:06:45;;;;;;;0.60;0.60;;;2.00;99.90;;;;;;5030888;28;20573;-78
2023/01/19 11:09:14;;;;;;;0.80;0.80;;;1.90;99.90;;;;;;5014331;28;20198;-78
2023/01/19 11:11:45;;;;;;;0.50;0.50;;;1.90;99.90;;;;;;5030722;28;20693;-78
2023/01/19 11:14:23;;;;;;;0.70;0.70;;;1.90;99.90;;;;;;5030934;28;20190;-78
2023/01/19 11:16:53;;;;;;;0.60;0.60;;;1.90;99.90;;;;;;5037182;28;20217;-78
2023/01/19 11:19:28;;;;;;;0.82;0.82;;;1.90;99.90;;;;;;5097209;28;20216;-79
2023/01/19 11:22:08;;;;;;;0.70;0.70;;;1.90;99.90;;;;;;5097275;28;20191;-78
2023/01/19 11:24:37;;;;;;;0.98;0.80;;;1.80;99.90;;;;;;5096951;28;20274;-78
2023/01/19 11:27:03;;;;;;;1.30;1.10;;;1.80;99.90;;;;;;5096078;28;20207;-78
2023/01/19 11:29:30;;;;;;;0.70;0.70;;;1.80;99.90;;;;;;5084925;28;20205;-78
2023/01/19 11:32:18;;;;;;;0.70;0.70;;;1.80;99.90;;;;;;5095717;28;20208;-79
2023/01/19 11:34:43;;;;;;;0.60;0.60;;;1.70;99.90;;;;;;5097042;28;20641;-79
2023/01/19 11:37:15;;;;;;;0.60;0.60;;;1.70;99.90;;;;;;5097208;28;20190;-79
2023/01/19 11:39:54;;;;;;;0.60;0.60;;;1.70;99.90;;;;;;5095979;28;20200;-78
2023/01/19 11:42:21;;;;;;;2.22;1.67;;;1.70;99.90;;;;;;5095523;28;20625;-79
2023/01/19 11:45:04;;;;;;;0.70;0.70;;;1.70;99.90;;;;;;5095792;28;20196;-79
2023/01/19 11:47:38;;;;;;;0.70;0.70;;;1.70;99.90;;;;;;5096643;28;20192;-79
2023/01/19 11:50:23;;;;;;;0.70;0.70;;;1.70;99.90;;;;;;5095448;28;20665;-79
2023/01/19 11:56:13;;;;;;;0.60;0.60;;;1.70;99.90;;;;;;5093004;28;20232;-79
2023/01/19 11:58:42;;;;;;;0.70;0.70;;;1.80;99.90;;;;;;5096046;28;20609;-79
2023/01/19 12:01:16;;;;;;;0.80;0.80;;;1.80;99.90;;;;;;5095393;28;20200;-79
2023/01/19 12:03:50;;;;;;;0.50;0.50;;;1.80;99.90;;;;;;5094752;28;20259;-79
2023/01/19 12:06:24;;;;;;;1.40;1.30;;;1.80;99.90;;;;;;5095086;28;20278;-79
2023/01/19 12:09:05;;;;;;;0.80;0.80;;;1.80;99.90;;;;;;5095368;28;20222;-79
2023/01/19 12:11:36;;;;;;;0.77;0.77;;;1.90;99.90;;;;;;5096388;28;20581;-79
2023/01/19 12:14:03;;;;;;;1.35;1.00;;;1.90;99.90;;;;;;5096810;28;20275;-79
2023/01/19 12:16:32;;;;;;;0.70;0.70;;;2.00;99.90;;;;;;5094786;28;20567;-78
2023/01/19 12:19:12;;;;;;;0.60;0.60;;;2.00;99.90;;;;;;5091516;28;20205;-79
2023/01/19 12:21:38;;;;;;;0.70;0.70;;;2.10;99.90;;;;;;5074671;28;20201;-79
2023/01/19 12:24:17;;;;;;;0.95;0.88;;;2.00;99.90;;;;;;5076076;28;20238;-79
2023/01/19 12:26:55;;;;;;;0.60;0.60;;;2.00;99.90;;;;;;5084968;28;20659;-79
2023/01/19 12:29:24;;;;;;;0.70;0.70;;;2.00;99.90;;;;;;5094792;28;20685;-79
2023/01/19 12:32:12;;;;;;;1.83;1.33;;;2.00;99.90;;;;;;5096057;28;20204;-79
2023/01/19 12:34:42;;;;;;;0.60;0.60;;;2.00;99.90;;;;;;5096559;28;20188;-79
2023/01/19 12:37:29;;;;;;;0.50;0.50;;;2.00;99.90;;;;;;5094573;28;20192;-79
2023/01/19 12:40:18;;;;;;;0.57;0.57;;;2.00;99.90;;;;;;5094715;28;20200;-79
2023/01/19 12:43:00;;;;;;;3.53;1.00;;;2.00;99.90;;;;;;5086452;28;20204;-79
2023/01/19 12:45:38;;;;;;;0.60;0.60;;;2.00;99.90;;;;;;5094670;28;20200;-79
2023/01/19 12:48:07;;;;;;;0.60;0.60;;;2.00;99.90;;;;;;5095508;28;20184;-80
2023/01/19 12:50:36;;;;;;;1.33;1.23;;;2.00;99.90;;;;;;5093962;28;20224;-80
2023/01/19 12:53:07;;;;;;;0.50;0.50;;;2.00;99.90;;;;;;5095518;28;20188;-80
2023/01/19 12:55:36;;;;;;;0.50;0.50;;;2.10;99.90;;;;;;5094082;28;20658;-81
2023/01/19 12:58:07;;;;;;;0.65;0.65;;;2.00;99.90;;;;;;5094094;28;20703;-81
2023/01/19 13:00:35;;;;;;;0.40;0.40;;;1.90;99.90;;;;;;5095229;28;20200;-80
2023/01/19 13:03:02;;;;;;;1.05;0.95;;;1.90;99.90;;;;;;5094775;28;20196;-80
2023/01/19 13:05:30;;;;;;;0.70;0.70;;;1.80;99.90;;;;;;5094470;28;20231;-79
2023/01/19 13:08:05;;;;;;;0.70;0.70;;;1.70;99.90;;;;;;5094803;28;20568;-80
2023/01/19 13:10:59;;;;;;;0.70;0.70;;;1.60;99.90;;;;;;5093779;28;20692;-79
2023/01/19 13:13:26;;;;;;;0.88;0.88;;;1.60;99.90;;;;;;5093281;28;20657;-80
2023/01/19 13:15:53;;;;;;;0.82;0.82;;;1.60;99.90;;;;;;5094590;28;20279;-80
2023/01/19 13:18:24;;;;;;;1.40;1.25;;;1.60;99.90;;;;;;5089576;28;20224;-80
2023/01/19 13:20:55;;;;;;;0.70;0.70;;;1.50;99.90;;;;;;5074375;28;20678;-81
2023/01/19 13:23:25;;;;;;;0.80;0.80;;;1.50;99.90;;;;;;5092844;28;20207;-79
2023/01/19 13:26:15;;;;;;;0.70;0.70;;;1.50;99.90;;;;;;5094539;28;20192;-79